Norway House Airport
CYNE : now visible

Airfield :











YOU CAN JOIN US ON...

 
LOGIN :

Register | Disclaimer

   EN    FR    IT 

 









Legend :    VFR   Marginal VFR   IFR   Intensive IFR   Very Intensive IFR
Visi :
Ceiling :
>= 8 km
>= 3000ft
5 to 8 km
1000 to 3000 ft
1500m to 5 km
500 to 1000 ft
800 to 1500m
200 to 500 ft
< 800m
< 200 ft
Symbols :   Thunderstorms  Fog  Heavy snow  Heavy precipitations  Wind > 20 kt






- Airport Elevation : 734 ft
- IATA code : YNE


CYNE - Norway House

CURRENT METAR :
  • 191600Z AUTO 28004KT 240V310 9SM CLR M23/M27 A3055 RMK SLP379

EXPIRED METARs :
  • 191500Z AUTO VRB02KT 9SM CLR M26/M29 A3056 RMK SLP382
  • 191400Z AUTO VRB02KT 9SM CLR M28/M31 A3054 RMK SLP377

TAF TAF CYNE
Valid from the 19 at 13:00 until the 20 at 01:00 UTC


191238Z 1913/2001 28005KT P6SM SKC
FM192100 21010KT P6SM SCT160 RMK FCST BASED ON AUTO OBS. NXT FCST BY 191900Z



MET'MAP, your aeronautical weather chart ! - Copyright ORBIFLY December 2007 - Disclaimer

ORBIFLY MET'MAP TEAM :

Programming & Development : Alexandra Zaïnal
Concept & original design : Baudouin d'Aumeries
Assistance for programming : Marc-Olivier Méhu
Technical & hardware support : Manuel Goepfert

Contact : metmap@orbifly.com




SOURCES & CREDITS :

   NOAA       Earth
Advisory